sensor_id;sensor_type;location;lat;lon;timestamp;P1;durP1;ratioP1;P2;durP2;ratioP2
8001;SDS011;4046;48.774;8.732;2023-02-28T00:01:27;1.40;;;1.20;;
8001;SDS011;4046;48.774;8.732;2023-02-28T00:03:53;1.20;;;1.00;;
8001;SDS011;4046;48.774;8.732;2023-02-28T00:06:19;1.30;;;1.10;;
8001;SDS011;4046;48.774;8.732;2023-02-28T00:08:46;1.50;;;1.30;;
8001;SDS011;4046;48.774;8.732;2023-02-28T00:11:13;1.30;;;1.10;;
8001;SDS011;4046;48.774;8.732;2023-02-28T00:13:41;1.30;;;1.20;;
8001;SDS011;4046;48.774;8.732;2023-02-28T00:16:10;1.40;;;1.10;;
8001;SDS011;4046;48.774;8.732;2023-02-28T00:18:38;1.40;;;1.30;;
8001;SDS011;4046;48.774;8.732;2023-02-28T00:21:05;1.30;;;1.20;;
8001;SDS011;4046;48.774;8.732;2023-02-28T00:23:32;1.53;;;1.23;;
8001;SDS011;4046;48.774;8.732;2023-02-28T00:25:58;1.30;;;1.20;;
8001;SDS011;4046;48.774;8.732;2023-02-28T00:28:24;1.30;;;1.10;;
8001;SDS011;4046;48.774;8.732;2023-02-28T00:30:51;1.20;;;1.07;;
8001;SDS011;4046;48.774;8.732;2023-02-28T00:33:17;1.40;;;1.20;;
8001;SDS011;4046;48.774;8.732;2023-02-28T00:35:43;1.30;;;1.10;;
8001;SDS011;4046;48.774;8.732;2023-02-28T00:38:12;1.20;;;1.03;;
8001;SDS011;4046;48.774;8.732;2023-02-28T00:40:39;1.67;;;1.07;;
8001;SDS011;4046;48.774;8.732;2023-02-28T00:43:05;1.40;;;1.30;;
8001;SDS011;4046;48.774;8.732;2023-02-28T00:45:31;1.43;;;1.30;;
8001;SDS011;4046;48.774;8.732;2023-02-28T00:47:57;1.40;;;1.00;;
8001;SDS011;4046;48.774;8.732;2023-02-28T00:50:23;1.40;;;1.27;;
8001;SDS011;4046;48.774;8.732;2023-02-28T00:52:50;1.30;;;1.20;;
8001;SDS011;4046;48.774;8.732;2023-02-28T00:55:16;1.30;;;1.13;;
8001;SDS011;4046;48.774;8.732;2023-02-28T00:57:42;1.30;;;1.20;;
8001;SDS011;4046;48.774;8.732;2023-02-28T01:00:08;1.30;;;1.07;;
8001;SDS011;4046;48.774;8.732;2023-02-28T01:02:35;1.63;;;1.10;;
8001;SDS011;4046;48.774;8.732;2023-02-28T01:05:01;1.50;;;1.27;;
8001;SDS011;4046;48.774;8.732;2023-02-28T01:07:27;1.30;;;1.10;;
8001;SDS011;4046;48.774;8.732;2023-02-28T01:09:54;1.20;;;1.10;;
8001;SDS011;4046;48.774;8.732;2023-02-28T01:12:20;1.57;;;1.47;;
8001;SDS011;4046;48.774;8.732;2023-02-28T01:14:46;1.30;;;1.10;;
8001;SDS011;4046;48.774;8.732;2023-02-28T01:17:12;1.53;;;1.10;;
8001;SDS011;4046;48.774;8.732;2023-02-28T01:19:39;1.20;;;1.00;;
8001;SDS011;4046;48.774;8.732;2023-02-28T01:22:06;1.40;;;1.30;;
8001;SDS011;4046;48.774;8.732;2023-02-28T01:24:32;1.30;;;1.20;;
8001;SDS011;4046;48.774;8.732;2023-02-28T01:26:58;1.30;;;1.10;;
8001;SDS011;4046;48.774;8.732;2023-02-28T01:29:25;1.30;;;1.07;;
8001;SDS011;4046;48.774;8.732;2023-02-28T01:31:51;1.30;;;1.10;;
8001;SDS011;4046;48.774;8.732;2023-02-28T01:34:17;1.60;;;1.10;;
8001;SDS011;4046;48.774;8.732;2023-02-28T01:36:44;1.30;;;1.10;;
8001;SDS011;4046;48.774;8.732;2023-02-28T01:39:11;1.40;;;1.27;;
8001;SDS011;4046;48.774;8.732;2023-02-28T01:41:38;1.30;;;1.10;;
8001;SDS011;4046;48.774;8.732;2023-02-28T01:47:10;1.50;;;1.20;;
8001;SDS011;4046;48.774;8.732;2023-02-28T01:49:36;1.40;;;1.03;;
8001;SDS011;4046;48.774;8.732;2023-02-28T01:52:03;1.43;;;1.20;;
8001;SDS011;4046;48.774;8.732;2023-02-28T01:54:30;1.30;;;1.17;;
8001;SDS011;4046;48.774;8.732;2023-02-28T01:57:00;1.27;;;1.10;;
8001;SDS011;4046;48.774;8.732;2023-02-28T01:59:31;1.30;;;1.00;;
8001;SDS011;4046;48.774;8.732;2023-02-28T02:02:01;1.40;;;1.10;;
8001;SDS011;4046;48.774;8.732;2023-02-28T02:04:31;1.27;;;0.90;;
8001;SDS011;4046;48.774;8.732;2023-02-28T02:07:02;1.40;;;1.20;;
8001;SDS011;4046;48.774;8.732;2023-02-28T02:09:29;1.20;;;1.00;;
8001;SDS011;4046;48.774;8.732;2023-02-28T02:11:55;1.40;;;1.27;;
8001;SDS011;4046;48.774;8.732;2023-02-28T02:14:43;1.37;;;1.23;;
8001;SDS011;4046;48.774;8.732;2023-02-28T02:17:40;1.57;;;1.47;;
8001;SDS011;4046;48.774;8.732;2023-02-28T02:31:27;1.30;;;1.07;;
8001;SDS011;4046;48.774;8.732;2023-02-28T02:42:56;1.60;;;1.23;;
8001;SDS011;4046;48.774;8.732;2023-02-28T02:48:03;1.30;;;1.10;;
8001;SDS011;4046;48.774;8.732;2023-02-28T02:50:35;1.33;;;1.20;;
8001;SDS011;4046;48.774;8.732;2023-02-28T02:53:05;1.30;;;1.00;;
8001;SDS011;4046;48.774;8.732;2023-02-28T02:55:33;1.20;;;1.00;;
8001;SDS011;4046;48.774;8.732;2023-02-28T02:58:04;1.30;;;1.00;;
8001;SDS011;4046;48.774;8.732;2023-02-28T03:00:34;1.50;;;1.10;;
8001;SDS011;4046;48.774;8.732;2023-02-28T03:03:05;1.30;;;1.00;;
8001;SDS011;4046;48.774;8.732;2023-02-28T03:05:35;1.40;;;1.30;;
8001;SDS011;4046;48.774;8.732;2023-02-28T03:08:11;1.40;;;1.10;;
8001;SDS011;4046;48.774;8.732;2023-02-28T03:10:39;1.33;;;1.23;;
8001;SDS011;4046;48.774;8.732;2023-02-28T03:13:35;1.97;;;1.10;;
8001;SDS011;4046;48.774;8.732;2023-02-28T03:16:23;1.53;;;1.20;;
8001;SDS011;4046;48.774;8.732;2023-02-28T03:18:54;1.27;;;1.07;;
8001;SDS011;4046;48.774;8.732;2023-02-28T03:21:44;1.50;;;1.20;;
8001;SDS011;4046;48.774;8.732;2023-02-28T03:27:07;1.37;;;1.13;;
8001;SDS011;4046;48.774;8.732;2023-02-28T03:29:45;1.30;;;1.00;;
8001;SDS011;4046;48.774;8.732;2023-02-28T03:32:24;1.20;;;1.10;;
8001;SDS011;4046;48.774;8.732;2023-02-28T03:34:57;1.40;;;1.30;;
8001;SDS011;4046;48.774;8.732;2023-02-28T03:37:31;1.40;;;1.20;;
8001;SDS011;4046;48.774;8.732;2023-02-28T03:40:06;1.37;;;1.27;;
8001;SDS011;4046;48.774;8.732;2023-02-28T03:42:39;2.00;;;1.20;;
8001;SDS011;4046;48.774;8.732;2023-02-28T03:45:12;1.40;;;1.10;;
8001;SDS011;4046;48.774;8.732;2023-02-28T03:47:46;1.40;;;1.27;;
8001;SDS011;4046;48.774;8.732;2023-02-28T03:51:02;1.50;;;1.33;;
8001;SDS011;4046;48.774;8.732;2023-02-28T03:53:14;1.30;;;1.13;;
8001;SDS011;4046;48.774;8.732;2023-02-28T03:55:51;1.57;;;1.20;;
8001;SDS011;4046;48.774;8.732;2023-02-28T04:01:07;1.40;;;1.30;;
8001;SDS011;4046;48.774;8.732;2023-02-28T04:03:38;1.50;;;1.40;;
8001;SDS011;4046;48.774;8.732;2023-02-28T04:06:05;1.30;;;1.10;;
8001;SDS011;4046;48.774;8.732;2023-02-28T04:08:38;1.23;;;1.10;;
8001;SDS011;4046;48.774;8.732;2023-02-28T04:11:06;1.23;;;1.10;;
8001;SDS011;4046;48.774;8.732;2023-02-28T04:13:42;1.37;;;1.20;;
8001;SDS011;4046;48.774;8.732;2023-02-28T04:16:08;1.40;;;1.20;;
8001;SDS011;4046;48.774;8.732;2023-02-28T04:18:39;1.40;;;1.20;;
8001;SDS011;4046;48.774;8.732;2023-02-28T04:21:06;1.23;;;1.10;;
8001;SDS011;4046;48.774;8.732;2023-02-28T04:23:32;1.30;;;1.00;;
8001;SDS011;4046;48.774;8.732;2023-02-28T04:25:59;1.33;;;1.23;;
8001;SDS011;4046;48.774;8.732;2023-02-28T04:28:25;1.30;;;1.10;;
8001;SDS011;4046;48.774;8.732;2023-02-28T04:30:59;1.67;;;1.33;;
8001;SDS011;4046;48.774;8.732;2023-02-28T04:33:27;1.30;;;1.17;;
8001;SDS011;4046;48.774;8.732;2023-02-28T04:36:06;1.30;;;1.20;;
8001;SDS011;4046;48.774;8.732;2023-02-28T04:38:34;1.20;;;1.00;;
8001;SDS011;4046;48.774;8.732;2023-02-28T04:41:02;1.53;;;1.30;;
8001;SDS011;4046;48.774;8.732;2023-02-28T04:43:29;1.30;;;1.20;;
8001;SDS011;4046;48.774;8.732;2023-02-28T04:45:57;1.37;;;1.13;;
8001;SDS011;4046;48.774;8.732;2023-02-28T04:48:27;1.30;;;1.10;;
8001;SDS011;4046;48.774;8.732;2023-02-28T04:50:54;1.40;;;1.20;;
8001;SDS011;4046;48.774;8.732;2023-02-28T04:53:25;1.30;;;1.20;;
8001;SDS011;4046;48.774;8.732;2023-02-28T04:55:51;1.30;;;1.20;;
8001;SDS011;4046;48.774;8.732;2023-02-28T04:58:17;1.30;;;1.20;;
8001;SDS011;4046;48.774;8.732;2023-02-28T05:00:43;1.30;;;1.20;;
8001;SDS011;4046;48.774;8.732;2023-02-28T05:03:09;1.70;;;1.27;;
8001;SDS011;4046;48.774;8.732;2023-02-28T05:05:36;1.30;;;1.20;;
8001;SDS011;4046;48.774;8.732;2023-02-28T05:08:02;1.30;;;1.10;;
8001;SDS011;4046;48.774;8.732;2023-02-28T05:10:28;1.30;;;1.20;;
8001;SDS011;4046;48.774;8.732;2023-02-28T05:12:55;1.50;;;1.30;;
8001;SDS011;4046;48.774;8.732;2023-02-28T05:15:21;1.30;;;1.20;;
8001;SDS011;4046;48.774;8.732;2023-02-28T05:17:47;1.20;;;1.03;;
8001;SDS011;4046;48.774;8.732;2023-02-28T05:20:13;1.47;;;1.37;;
8001;SDS011;4046;48.774;8.732;2023-02-28T05:22:40;1.60;;;1.50;;
8001;SDS011;4046;48.774;8.732;2023-02-28T05:25:08;1.40;;;1.30;;
8001;SDS011;4046;48.774;8.732;2023-02-28T05:27:37;1.30;;;1.10;;
8001;SDS011;4046;48.774;8.732;2023-02-28T05:30:04;1.30;;;1.10;;
8001;SDS011;4046;48.774;8.732;2023-02-28T05:32:31;1.40;;;1.20;;
8001;SDS011;4046;48.774;8.732;2023-02-28T05:34:58;1.50;;;1.30;;
8001;SDS011;4046;48.774;8.732;2023-02-28T05:37:24;1.20;;;1.10;;
8001;SDS011;4046;48.774;8.732;2023-02-28T05:39:50;1.40;;;1.20;;
8001;SDS011;4046;48.774;8.732;2023-02-28T05:42:16;1.40;;;1.30;;
8001;SDS011;4046;48.774;8.732;2023-02-28T05:44:42;1.23;;;1.10;;
8001;SDS011;4046;48.774;8.732;2023-02-28T05:47:08;1.30;;;1.10;;
8001;SDS011;4046;48.774;8.732;2023-02-28T05:49:35;1.33;;;1.23;;
8001;SDS011;4046;48.774;8.732;2023-02-28T05:52:01;1.20;;;1.00;;
8001;SDS011;4046;48.774;8.732;2023-02-28T05:54:27;1.30;;;1.13;;
8001;SDS011;4046;48.774;8.732;2023-02-28T05:56:53;1.30;;;1.10;;
8001;SDS011;4046;48.774;8.732;2023-02-28T05:59:19;1.40;;;1.10;;
8001;SDS011;4046;48.774;8.732;2023-02-28T06:01:45;1.60;;;1.50;;
8001;SDS011;4046;48.774;8.732;2023-02-28T06:04:16;1.60;;;1.50;;
8001;SDS011;4046;48.774;8.732;2023-02-28T06:06:44;1.30;;;1.10;;
8001;SDS011;4046;48.774;8.732;2023-02-28T06:09:11;1.30;;;1.20;;
8001;SDS011;4046;48.774;8.732;2023-02-28T06:11:37;1.33;;;1.23;;
8001;SDS011;4046;48.774;8.732;2023-02-28T06:14:04;1.30;;;1.00;;
8001;SDS011;4046;48.774;8.732;2023-02-28T06:16:32;1.57;;;1.43;;
8001;SDS011;4046;48.774;8.732;2023-02-28T06:19:00;1.40;;;1.30;;
8001;SDS011;4046;48.774;8.732;2023-02-28T06:21:28;1.73;;;1.23;;
8001;SDS011;4046;48.774;8.732;2023-02-28T06:23:55;1.47;;;1.37;;
8001;SDS011;4046;48.774;8.732;2023-02-28T06:26:22;1.40;;;1.20;;
8001;SDS011;4046;48.774;8.732;2023-02-28T06:28:49;1.77;;;1.30;;
8001;SDS011;4046;48.774;8.732;2023-02-28T06:31:16;1.30;;;1.20;;
8001;SDS011;4046;48.774;8.732;2023-02-28T06:33:44;1.30;;;1.10;;
8001;SDS011;4046;48.774;8.732;2023-02-28T06:36:11;1.67;;;1.43;;
8001;SDS011;4046;48.774;8.732;2023-02-28T06:38:39;1.30;;;1.20;;
8001;SDS011;4046;48.774;8.732;2023-02-28T06:41:06;1.40;;;1.30;;
8001;SDS011;4046;48.774;8.732;2023-02-28T06:43:35;1.30;;;1.07;;
8001;SDS011;4046;48.774;8.732;2023-02-28T06:46:04;1.57;;;1.47;;
8001;SDS011;4046;48.774;8.732;2023-02-28T06:48:32;1.40;;;1.30;;
8001;SDS011;4046;48.774;8.732;2023-02-28T06:51:03;1.30;;;1.20;;
8001;SDS011;4046;48.774;8.732;2023-02-28T06:53:30;1.63;;;1.53;;
8001;SDS011;4046;48.774;8.732;2023-02-28T06:55:57;1.30;;;1.20;;
8001;SDS011;4046;48.774;8.732;2023-02-28T06:58:23;1.20;;;1.00;;
8001;SDS011;4046;48.774;8.732;2023-02-28T07:00:52;1.40;;;1.30;;
8001;SDS011;4046;48.774;8.732;2023-02-28T07:03:18;1.80;;;1.20;;
8001;SDS011;4046;48.774;8.732;2023-02-28T07:05:45;1.50;;;1.37;;
8001;SDS011;4046;48.774;8.732;2023-02-28T07:08:11;1.40;;;1.27;;
8001;SDS011;4046;48.774;8.732;2023-02-28T07:10:38;1.40;;;1.30;;
8001;SDS011;4046;48.774;8.732;2023-02-28T07:13:04;1.67;;;1.40;;
8001;SDS011;4046;48.774;8.732;2023-02-28T07:15:32;1.40;;;1.30;;
8001;SDS011;4046;48.774;8.732;2023-02-28T07:17:58;1.40;;;1.30;;
8001;SDS011;4046;48.774;8.732;2023-02-28T07:20:25;1.60;;;1.50;;
8001;SDS011;4046;48.774;8.732;2023-02-28T07:22:51;1.40;;;1.30;;
8001;SDS011;4046;48.774;8.732;2023-02-28T07:25:22;1.33;;;1.23;;
8001;SDS011;4046;48.774;8.732;2023-02-28T07:27:49;1.47;;;1.37;;
8001;SDS011;4046;48.774;8.732;2023-02-28T07:30:16;1.70;;;1.43;;
8001;SDS011;4046;48.774;8.732;2023-02-28T07:32:42;1.70;;;1.60;;
8001;SDS011;4046;48.774;8.732;2023-02-28T07:35:08;2.07;;;1.47;;
8001;SDS011;4046;48.774;8.732;2023-02-28T07:37:35;1.80;;;1.70;;
8001;SDS011;4046;48.774;8.732;2023-02-28T07:40:05;1.60;;;1.50;;
8001;SDS011;4046;48.774;8.732;2023-02-28T07:42:35;2.27;;;2.10;;
8001;SDS011;4046;48.774;8.732;2023-02-28T07:45:01;1.73;;;1.63;;
8001;SDS011;4046;48.774;8.732;2023-02-28T07:47:31;2.17;;;1.50;;
8001;SDS011;4046;48.774;8.732;2023-02-28T07:49:57;2.67;;;1.63;;
8001;SDS011;4046;48.774;8.732;2023-02-28T07:52:24;2.10;;;1.70;;
8001;SDS011;4046;48.774;8.732;2023-02-28T07:54:50;2.93;;;1.80;;
8001;SDS011;4046;48.774;8.732;2023-02-28T07:57:17;1.80;;;1.60;;
8001;SDS011;4046;48.774;8.732;2023-02-28T07:59:43;1.90;;;1.63;;
8001;SDS011;4046;48.774;8.732;2023-02-28T08:02:12;2.10;;;1.60;;
8001;SDS011;4046;48.774;8.732;2023-02-28T08:04:39;2.43;;;1.97;;
8001;SDS011;4046;48.774;8.732;2023-02-28T08:07:06;1.80;;;1.70;;
8001;SDS011;4046;48.774;8.732;2023-02-28T08:09:33;1.70;;;1.60;;
8001;SDS011;4046;48.774;8.732;2023-02-28T08:11:59;1.50;;;1.40;;
8001;SDS011;4046;48.774;8.732;2023-02-28T08:14:26;1.53;;;1.43;;
8001;SDS011;4046;48.774;8.732;2023-02-28T08:16:52;2.10;;;2.00;;
8001;SDS011;4046;48.774;8.732;2023-02-28T08:19:18;1.87;;;1.77;;
8001;SDS011;4046;48.774;8.732;2023-02-28T08:21:45;5.13;;;1.87;;
8001;SDS011;4046;48.774;8.732;2023-02-28T08:24:11;1.53;;;1.43;;
8001;SDS011;4046;48.774;8.732;2023-02-28T08:26:37;1.97;;;1.70;;
8001;SDS011;4046;48.774;8.732;2023-02-28T08:29:04;2.00;;;1.90;;
8001;SDS011;4046;48.774;8.732;2023-02-28T08:31:30;2.50;;;2.30;;
8001;SDS011;4046;48.774;8.732;2023-02-28T08:33:56;2.33;;;2.10;;
8001;SDS011;4046;48.774;8.732;2023-02-28T08:36:24;2.53;;;2.00;;
8001;SDS011;4046;48.774;8.732;2023-02-28T08:38:54;1.90;;;1.80;;
8001;SDS011;4046;48.774;8.732;2023-02-28T08:41:20;2.07;;;1.87;;
8001;SDS011;4046;48.774;8.732;2023-02-28T08:43:46;1.77;;;1.67;;
8001;SDS011;4046;48.774;8.732;2023-02-28T08:46:13;1.70;;;1.60;;
8001;SDS011;4046;48.774;8.732;2023-02-28T08:48:39;1.90;;;1.80;;
8001;SDS011;4046;48.774;8.732;2023-02-28T08:51:07;2.13;;;1.93;;
8001;SDS011;4046;48.774;8.732;2023-02-28T08:53:36;2.53;;;2.00;;
8001;SDS011;4046;48.774;8.732;2023-02-28T08:56:07;3.00;;;2.20;;
8001;SDS011;4046;48.774;8.732;2023-02-28T08:58:36;1.70;;;1.60;;
8001;SDS011;4046;48.774;8.732;2023-02-28T09:01:07;1.97;;;1.77;;
8001;SDS011;4046;48.774;8.732;2023-02-28T09:03:38;1.90;;;1.80;;
8001;SDS011;4046;48.774;8.732;2023-02-28T09:06:07;2.37;;;1.70;;
8001;SDS011;4046;48.774;8.732;2023-02-28T09:08:34;2.30;;;2.10;;
8001;SDS011;4046;48.774;8.732;2023-02-28T09:11:01;3.00;;;1.67;;
8001;SDS011;4046;48.774;8.732;2023-02-28T09:13:28;2.13;;;1.90;;
8001;SDS011;4046;48.774;8.732;2023-02-28T09:15:59;2.93;;;2.00;;
8001;SDS011;4046;48.774;8.732;2023-02-28T09:18:28;2.00;;;1.90;;
8001;SDS011;4046;48.774;8.732;2023-02-28T09:20:55;2.30;;;2.10;;
8001;SDS011;4046;48.774;8.732;2023-02-28T09:23:21;2.33;;;2.13;;
8001;SDS011;4046;48.774;8.732;2023-02-28T09:25:49;2.30;;;2.10;;
8001;SDS011;4046;48.774;8.732;2023-02-28T09:28:17;2.20;;;2.00;;
8001;SDS011;4046;48.774;8.732;2023-02-28T09:30:44;2.53;;;2.20;;
8001;SDS011;4046;48.774;8.732;2023-02-28T09:33:12;2.13;;;2.03;;
8001;SDS011;4046;48.774;8.732;2023-02-28T09:35:39;2.17;;;2.00;;
8001;SDS011;4046;48.774;8.732;2023-02-28T09:38:06;3.97;;;2.10;;
8001;SDS011;4046;48.774;8.732;2023-02-28T09:40:35;2.17;;;1.93;;
8001;SDS011;4046;48.774;8.732;2023-02-28T09:43:05;2.07;;;1.97;;
8001;SDS011;4046;48.774;8.732;2023-02-28T09:45:37;2.60;;;2.40;;
8001;SDS011;4046;48.774;8.732;2023-02-28T09:48:09;2.17;;;1.97;;
8001;SDS011;4046;48.774;8.732;2023-02-28T09:50:46;2.47;;;2.27;;
8001;SDS011;4046;48.774;8.732;2023-02-28T09:53:21;2.40;;;2.00;;
8001;SDS011;4046;48.774;8.732;2023-02-28T09:56:09;2.20;;;2.00;;
8001;SDS011;4046;48.774;8.732;2023-02-28T10:01:27;2.20;;;2.00;;
8001;SDS011;4046;48.774;8.732;2023-02-28T10:06:51;1.80;;;1.70;;
8001;SDS011;4046;48.774;8.732;2023-02-28T10:09:25;2.87;;;1.70;;
8001;SDS011;4046;48.774;8.732;2023-02-28T10:11:56;2.10;;;1.90;;
8001;SDS011;4046;48.774;8.732;2023-02-28T10:14:28;2.27;;;2.17;;
8001;SDS011;4046;48.774;8.732;2023-02-28T10:17:12;2.27;;;2.07;;
8001;SDS011;4046;48.774;8.732;2023-02-28T10:22:17;2.30;;;2.10;;
8001;SDS011;4046;48.774;8.732;2023-02-28T10:25:15;2.80;;;2.10;;
8001;SDS011;4046;48.774;8.732;2023-02-28T10:27:44;2.30;;;2.03;;
8001;SDS011;4046;48.774;8.732;2023-02-28T10:30:11;2.33;;;2.17;;
8001;SDS011;4046;48.774;8.732;2023-02-28T10:32:39;2.47;;;2.20;;
8001;SDS011;4046;48.774;8.732;2023-02-28T10:37:50;7.10;;;2.57;;
8001;SDS011;4046;48.774;8.732;2023-02-28T10:42:55;3.67;;;2.80;;
8001;SDS011;4046;48.774;8.732;2023-02-28T10:45:34;7.57;;;2.90;;
8001;SDS011;4046;48.774;8.732;2023-02-28T10:48:50;4.13;;;2.23;;
8001;SDS011;4046;48.774;8.732;2023-02-28T10:51:00;2.67;;;2.30;;
8001;SDS011;4046;48.774;8.732;2023-02-28T10:58:48;3.67;;;2.50;;
8001;SDS011;4046;48.774;8.732;2023-02-28T11:01:39;4.33;;;2.80;;
8001;SDS011;4046;48.774;8.732;2023-02-28T11:04:18;5.27;;;2.90;;
8001;SDS011;4046;48.774;8.732;2023-02-28T11:06:56;6.30;;;2.23;;
8001;SDS011;4046;48.774;8.732;2023-02-28T11:09:46;6.73;;;2.70;;
8001;SDS011;4046;48.774;8.732;2023-02-28T11:12:28;5.80;;;3.10;;
8001;SDS011;4046;48.774;8.732;2023-02-28T11:15:00;6.10;;;2.70;;
8001;SDS011;4046;48.774;8.732;2023-02-28T11:17:31;7.33;;;2.57;;
8001;SDS011;4046;48.774;8.732;2023-02-28T11:20:04;2.73;;;2.40;;
8001;SDS011;4046;48.774;8.732;2023-02-28T11:22:33;4.50;;;2.73;;
8001;SDS011;4046;48.774;8.732;2023-02-28T11:25:09;2.83;;;2.63;;
8001;SDS011;4046;48.774;8.732;2023-02-28T11:27:52;2.50;;;2.30;;
8001;SDS011;4046;48.774;8.732;2023-02-28T11:30:31;2.70;;;2.50;;
8001;SDS011;4046;48.774;8.732;2023-02-28T11:32:59;2.70;;;2.47;;
8001;SDS011;4046;48.774;8.732;2023-02-28T11:35:31;4.20;;;2.50;;
8001;SDS011;4046;48.774;8.732;2023-02-28T11:38:07;2.83;;;2.50;;
8001;SDS011;4046;48.774;8.732;2023-02-28T11:49:06;3.30;;;2.47;;
8001;SDS011;4046;48.774;8.732;2023-02-28T11:51:59;3.10;;;2.80;;
8001;SDS011;4046;48.774;8.732;2023-02-28T12:14:00;4.80;;;2.70;;
8001;SDS011;4046;48.774;8.732;2023-02-28T12:19:35;2.93;;;2.73;;
8001;SDS011;4046;48.774;8.732;2023-02-28T12:22:14;4.47;;;2.40;;
8001;SDS011;4046;48.774;8.732;2023-02-28T12:27:41;4.90;;;2.47;;
8001;SDS011;4046;48.774;8.732;2023-02-28T12:32:52;2.73;;;2.00;;
8001;SDS011;4046;48.774;8.732;2023-02-28T12:35:54;2.50;;;2.30;;
8001;SDS011;4046;48.774;8.732;2023-02-28T12:38:27;2.60;;;2.40;;
8001;SDS011;4046;48.774;8.732;2023-02-28T12:41:04;3.50;;;2.33;;
8001;SDS011;4046;48.774;8.732;2023-02-28T12:43:37;3.23;;;2.93;;
8001;SDS011;4046;48.774;8.732;2023-02-28T12:46:21;3.53;;;2.30;;
8001;SDS011;4046;48.774;8.732;2023-02-28T12:48:52;2.57;;;2.30;;
8001;SDS011;4046;48.774;8.732;2023-02-28T12:51:22;3.17;;;2.40;;
8001;SDS011;4046;48.774;8.732;2023-02-28T12:53:54;2.43;;;2.23;;
8001;SDS011;4046;48.774;8.732;2023-02-28T13:10:49;18.40;;;3.27;;
8001;SDS011;4046;48.774;8.732;2023-02-28T13:13:29;13.80;;;3.10;;
8001;SDS011;4046;48.774;8.732;2023-02-28T13:16:07;10.13;;;3.23;;
8001;SDS011;4046;48.774;8.732;2023-02-28T13:18:36;10.33;;;2.77;;
8001;SDS011;4046;48.774;8.732;2023-02-28T13:21:09;5.73;;;3.23;;
8001;SDS011;4046;48.774;8.732;2023-02-28T13:34:34;4.03;;;2.77;;
8001;SDS011;4046;48.774;8.732;2023-02-28T13:39:53;4.90;;;2.60;;
8001;SDS011;4046;48.774;8.732;2023-02-28T14:06:38;4.23;;;2.40;;
8001;SDS011;4046;48.774;8.732;2023-02-28T14:11:44;3.30;;;2.60;;
8001;SDS011;4046;48.774;8.732;2023-02-28T14:17:03;2.60;;;2.40;;
8001;SDS011;4046;48.774;8.732;2023-02-28T14:19:31;3.80;;;2.70;;
8001;SDS011;4046;48.774;8.732;2023-02-28T14:28:09;2.93;;;2.57;;
8001;SDS011;4046;48.774;8.732;2023-02-28T14:38:56;4.13;;;2.27;;
8001;SDS011;4046;48.774;8.732;2023-02-28T14:43:57;2.50;;;2.30;;
8001;SDS011;4046;48.774;8.732;2023-02-28T14:46:32;4.30;;;2.33;;
8001;SDS011;4046;48.774;8.732;2023-02-28T14:49:05;2.90;;;2.50;;
8001;SDS011;4046;48.774;8.732;2023-02-28T14:51:38;2.40;;;2.20;;
8001;SDS011;4046;48.774;8.732;2023-02-28T14:54:04;2.70;;;2.50;;
8001;SDS011;4046;48.774;8.732;2023-02-28T14:56:35;3.33;;;2.60;;
8001;SDS011;4046;48.774;8.732;2023-02-28T14:59:04;4.03;;;2.70;;
8001;SDS011;4046;48.774;8.732;2023-02-28T15:01:46;3.07;;;2.57;;
8001;SDS011;4046;48.774;8.732;2023-02-28T15:04:18;2.70;;;2.50;;
8001;SDS011;4046;48.774;8.732;2023-02-28T15:07:09;2.30;;;2.10;;
8001;SDS011;4046;48.774;8.732;2023-02-28T15:09:40;2.40;;;2.20;;
8001;SDS011;4046;48.774;8.732;2023-02-28T15:12:07;2.23;;;1.80;;
8001;SDS011;4046;48.774;8.732;2023-02-28T15:14:36;2.57;;;2.37;;
8001;SDS011;4046;48.774;8.732;2023-02-28T15:17:09;3.10;;;2.13;;
8001;SDS011;4046;48.774;8.732;2023-02-28T15:19:45;2.90;;;2.20;;
8001;SDS011;4046;48.774;8.732;2023-02-28T15:22:16;2.43;;;2.23;;
8001;SDS011;4046;48.774;8.732;2023-02-28T15:24:47;2.30;;;2.10;;
8001;SDS011;4046;48.774;8.732;2023-02-28T15:27:36;2.87;;;2.43;;
8001;SDS011;4046;48.774;8.732;2023-02-28T15:30:08;2.40;;;2.20;;
8001;SDS011;4046;48.774;8.732;2023-02-28T15:32:42;2.50;;;2.30;;
8001;SDS011;4046;48.774;8.732;2023-02-28T15:35:24;2.20;;;1.80;;
8001;SDS011;4046;48.774;8.732;2023-02-28T15:40:30;2.40;;;2.20;;
8001;SDS011;4046;48.774;8.732;2023-02-28T15:45:49;2.90;;;2.70;;
8001;SDS011;4046;48.774;8.732;2023-02-28T15:48:21;2.80;;;2.60;;
8001;SDS011;4046;48.774;8.732;2023-02-28T15:50:53;2.40;;;2.20;;
8001;SDS011;4046;48.774;8.732;2023-02-28T15:53:50;2.60;;;2.40;;
8001;SDS011;4046;48.774;8.732;2023-02-28T15:56:27;2.63;;;2.37;;
8001;SDS011;4046;48.774;8.732;2023-02-28T15:59:03;2.57;;;2.10;;
8001;SDS011;4046;48.774;8.732;2023-02-28T16:01:33;3.23;;;2.37;;
8001;SDS011;4046;48.774;8.732;2023-02-28T16:04:02;3.13;;;2.67;;
8001;SDS011;4046;48.774;8.732;2023-02-28T16:09:09;2.97;;;2.57;;
8001;SDS011;4046;48.774;8.732;2023-02-28T16:11:50;2.57;;;2.37;;
8001;SDS011;4046;48.774;8.732;2023-02-28T16:14:20;2.47;;;2.27;;
8001;SDS011;4046;48.774;8.732;2023-02-28T16:16:52;2.60;;;2.40;;
8001;SDS011;4046;48.774;8.732;2023-02-28T16:19:20;2.30;;;2.10;;
8001;SDS011;4046;48.774;8.732;2023-02-28T16:21:46;2.23;;;2.03;;
8001;SDS011;4046;48.774;8.732;2023-02-28T16:24:13;2.43;;;1.93;;
8001;SDS011;4046;48.774;8.732;2023-02-28T16:26:40;4.20;;;2.10;;
8001;SDS011;4046;48.774;8.732;2023-02-28T16:29:13;2.60;;;2.40;;
8001;SDS011;4046;48.774;8.732;2023-02-28T16:31:51;4.50;;;2.23;;
8001;SDS011;4046;48.774;8.732;2023-02-28T16:34:19;2.43;;;2.23;;
8001;SDS011;4046;48.774;8.732;2023-02-28T16:36:49;2.40;;;2.30;;
8001;SDS011;4046;48.774;8.732;2023-02-28T16:39:15;2.70;;;2.50;;
8001;SDS011;4046;48.774;8.732;2023-02-28T16:41:43;2.90;;;2.30;;
8001;SDS011;4046;48.774;8.732;2023-02-28T16:44:17;2.40;;;2.20;;
8001;SDS011;4046;48.774;8.732;2023-02-28T16:46:50;4.80;;;2.70;;
8001;SDS011;4046;48.774;8.732;2023-02-28T16:49:16;2.00;;;1.90;;
8001;SDS011;4046;48.774;8.732;2023-02-28T16:51:42;2.30;;;1.90;;
8001;SDS011;4046;48.774;8.732;2023-02-28T16:54:08;2.57;;;2.37;;
8001;SDS011;4046;48.774;8.732;2023-02-28T16:56:35;2.70;;;2.50;;
8001;SDS011;4046;48.774;8.732;2023-02-28T16:59:09;2.53;;;2.33;;
8001;SDS011;4046;48.774;8.732;2023-02-28T17:01:37;2.50;;;2.30;;
8001;SDS011;4046;48.774;8.732;2023-02-28T17:04:03;2.70;;;2.50;;
8001;SDS011;4046;48.774;8.732;2023-02-28T17:06:30;2.90;;;2.00;;
8001;SDS011;4046;48.774;8.732;2023-02-28T17:08:57;2.43;;;2.23;;
8001;SDS011;4046;48.774;8.732;2023-02-28T17:11:24;2.60;;;2.40;;
8001;SDS011;4046;48.774;8.732;2023-02-28T17:13:51;2.30;;;2.10;;
8001;SDS011;4046;48.774;8.732;2023-02-28T17:16:29;2.40;;;2.20;;
8001;SDS011;4046;48.774;8.732;2023-02-28T17:18:57;2.77;;;2.57;;
8001;SDS011;4046;48.774;8.732;2023-02-28T17:21:26;3.60;;;2.20;;
8001;SDS011;4046;48.774;8.732;2023-02-28T17:23:52;2.47;;;2.27;;
8001;SDS011;4046;48.774;8.732;2023-02-28T17:26:19;2.50;;;2.30;;
8001;SDS011;4046;48.774;8.732;2023-02-28T17:28:47;2.73;;;2.53;;
8001;SDS011;4046;48.774;8.732;2023-02-28T17:31:14;2.70;;;2.50;;
8001;SDS011;4046;48.774;8.732;2023-02-28T17:33:41;2.43;;;2.23;;
8001;SDS011;4046;48.774;8.732;2023-02-28T17:36:13;2.27;;;2.10;;
8001;SDS011;4046;48.774;8.732;2023-02-28T17:38:40;2.50;;;2.30;;
8001;SDS011;4046;48.774;8.732;2023-02-28T17:41:10;2.60;;;2.40;;
8001;SDS011;4046;48.774;8.732;2023-02-28T17:43:37;2.43;;;2.27;;
8001;SDS011;4046;48.774;8.732;2023-02-28T17:46:04;2.50;;;2.30;;
8001;SDS011;4046;48.774;8.732;2023-02-28T17:48:31;2.20;;;2.10;;
8001;SDS011;4046;48.774;8.732;2023-02-28T17:50:58;2.60;;;2.40;;
8001;SDS011;4046;48.774;8.732;2023-02-28T17:53:24;2.77;;;2.57;;
8001;SDS011;4046;48.774;8.732;2023-02-28T17:55:52;2.20;;;2.00;;
8001;SDS011;4046;48.774;8.732;2023-02-28T17:58:19;2.57;;;2.37;;
8001;SDS011;4046;48.774;8.732;2023-02-28T18:00:45;2.30;;;2.20;;
8001;SDS011;4046;48.774;8.732;2023-02-28T18:03:13;2.37;;;2.27;;
8001;SDS011;4046;48.774;8.732;2023-02-28T18:05:39;2.57;;;2.37;;
8001;SDS011;4046;48.774;8.732;2023-02-28T18:08:07;2.50;;;2.30;;
8001;SDS011;4046;48.774;8.732;2023-02-28T18:10:36;2.43;;;2.30;;
8001;SDS011;4046;48.774;8.732;2023-02-28T18:13:02;1.90;;;1.80;;
8001;SDS011;4046;48.774;8.732;2023-02-28T18:15:29;2.53;;;2.33;;
8001;SDS011;4046;48.774;8.732;2023-02-28T18:17:55;2.70;;;2.50;;
8001;SDS011;4046;48.774;8.732;2023-02-28T18:20:22;2.50;;;2.30;;
8001;SDS011;4046;48.774;8.732;2023-02-28T18:22:48;2.50;;;2.30;;